Time;durP1;ratioP1;P1;durP2;ratioP2;P2;SDS_P1;SDS_P2;PMS_P1;PMS_P2;Temp;Humidity;BMP_temperature;BMP_pressure;BME280_temperature;BME280_humidity;BME280_pressure;Samples;Min_cycle;Max_cycle;Signal;HPM_P1;HPM_P2
2023/08/24 00:00:23;;;;;;;10.70;6.20;;;16.30;77.10;;;;;;5012022;28;20455;-70
2023/08/24 00:02:50;;;;;;;9.20;6.83;;;16.30;78.10;;;;;;5012327;28;20453;-69
2023/08/24 00:05:17;;;;;;;10.20;5.60;;;16.40;74.90;;;;;;5011903;28;20553;-69
2023/08/24 00:07:44;;;;;;;12.40;4.80;;;16.40;82.80;;;;;;5012005;28;20540;-69
2023/08/24 00:10:11;;;;;;;11.60;5.40;;;16.40;82.10;;;;;;5011833;28;20449;-69
2023/08/24 00:12:39;;;;;;;8.80;5.30;;;16.30;82.70;;;;;;5012314;28;20540;-69
2023/08/24 00:15:10;;;;;;;8.67;5.30;;;16.20;82.60;;;;;;5011619;28;20449;-69
2023/08/24 00:17:37;;;;;;;8.83;4.77;;;16.10;82.50;;;;;;5011595;28;20477;-68
2023/08/24 00:20:10;;;;;;;9.50;6.57;;;16.10;82.50;;;;;;5011782;28;20488;-69
2023/08/24 00:22:38;;;;;;;12.93;7.80;;;16.00;78.00;;;;;;5010818;28;20953;-70
2023/08/24 00:25:06;;;;;;;12.53;9.30;;;16.00;78.30;;;;;;5011601;28;20515;-71
2023/08/24 00:27:33;;;;;;;23.47;21.63;;;15.80;82.20;;;;;;5011985;28;20473;-69
2023/08/24 00:30:01;;;;;;;41.17;38.47;;;15.70;85.00;;;;;;5011660;28;20500;-70
2023/08/24 00:32:28;;;;;;;56.27;53.47;;;15.70;89.20;;;;;;5011442;28;20455;-70
2023/08/24 00:34:56;;;;;;;51.77;49.13;;;15.70;89.90;;;;;;5010990;28;20461;-70
2023/08/24 00:37:23;;;;;;;80.40;77.00;;;15.60;90.90;;;;;;5011549;28;20513;-69
2023/08/24 00:39:50;;;;;;;104.40;100.40;;;15.50;91.70;;;;;;5011677;28;20449;-70
2023/08/24 00:42:18;;;;;;;117.10;112.87;;;15.60;93.20;;;;;;5011415;28;20535;-70
2023/08/24 00:44:45;;;;;;;108.63;104.23;;;15.50;93.20;;;;;;5011186;28;20544;-69
2023/08/24 00:47:13;;;;;;;112.00;107.47;;;15.50;93.60;;;;;;5011314;28;20477;-70
2023/08/24 00:49:41;;;;;;;115.83;111.30;;;15.40;93.20;;;;;;5011488;28;20869;-70
2023/08/24 00:52:08;;;;;;;146.83;141.43;;;15.40;93.20;;;;;;5011181;28;20493;-70
2023/08/24 00:54:36;;;;;;;164.60;158.10;;;15.40;93.20;;;;;;5011213;28;20503;-69
2023/08/24 00:57:03;;;;;;;188.10;180.77;;;15.40;93.20;;;;;;5011367;28;20556;-69
2023/08/24 00:59:30;;;;;;;124.93;119.40;;;15.40;94.90;;;;;;5011112;28;21013;-69
2023/08/24 01:01:57;;;;;;;90.10;86.43;;;15.30;93.20;;;;;;5010377;28;20484;-69
2023/08/24 01:04:26;;;;;;;65.63;62.43;;;15.30;93.20;;;;;;5011046;28;20455;-69
2023/08/24 01:06:53;;;;;;;52.27;49.90;;;15.40;93.20;;;;;;5011183;28;20979;-69
2023/08/24 01:09:21;;;;;;;56.83;54.20;;;15.40;91.80;;;;;;5010838;28;20541;-69
2023/08/24 01:11:59;;;;;;;71.40;68.37;;;15.50;90.10;;;;;;5010840;28;20453;-70
2023/08/24 01:14:36;;;;;;;79.47;75.93;;;15.50;91.40;;;;;;5010255;28;20459;-70
2023/08/24 01:17:06;;;;;;;92.07;88.37;;;15.50;93.20;;;;;;5011307;28;20503;-69
2023/08/24 01:19:42;;;;;;;113.70;109.50;;;15.40;93.20;;;;;;5010926;28;20548;-70
2023/08/24 01:22:21;;;;;;;122.57;118.10;;;15.50;93.20;;;;;;5010921;28;20453;-69
2023/08/24 01:24:55;;;;;;;106.87;102.17;;;15.40;93.20;;;;;;5010325;28;20485;-69
2023/08/24 01:27:24;;;;;;;105.13;100.70;;;15.40;93.20;;;;;;5010983;28;20450;-69
2023/08/24 01:29:52;;;;;;;121.27;116.63;;;15.40;93.20;;;;;;5010556;28;20536;-70
2023/08/24 01:32:19;;;;;;;109.90;105.63;;;15.40;93.20;;;;;;5010848;28;20818;-69
2023/08/24 01:34:46;;;;;;;110.10;105.60;;;15.50;93.20;;;;;;5009953;28;20466;-69
2023/08/24 01:37:14;;;;;;;104.43;100.43;;;15.40;93.20;;;;;;5010956;28;20531;-69
2023/08/24 01:39:47;;;;;;;119.50;114.73;;;15.40;93.20;;;;;;5010908;28;20890;-69
2023/08/24 01:42:20;;;;;;;117.27;112.63;;;15.40;93.20;;;;;;5010612;28;20450;-69
2023/08/24 01:44:53;;;;;;;105.90;101.90;;;15.30;93.20;;;;;;5009840;28;20453;-69
2023/08/24 01:47:21;;;;;;;88.40;84.83;;;15.30;93.20;;;;;;5010383;28;20450;-70
2023/08/24 01:49:49;;;;;;;88.00;84.60;;;15.30;93.20;;;;;;5012673;28;20453;-69
2023/08/24 01:52:16;;;;;;;91.37;87.47;;;15.30;93.20;;;;;;5014607;28;20500;-69
2023/08/24 01:54:44;;;;;;;114.67;110.20;;;15.20;93.10;;;;;;5014247;28;20512;-69
2023/08/24 01:57:11;;;;;;;80.33;77.07;;;15.30;93.20;;;;;;5014329;28;20457;-69
2023/08/24 01:59:38;;;;;;;111.43;106.97;;;15.20;93.10;;;;;;5014311;28;21112;-69
2023/08/24 02:02:07;;;;;;;139.30;134.10;;;15.30;93.20;;;;;;5014373;28;20465;-69
2023/08/24 02:04:34;;;;;;;147.53;141.57;;;15.30;93.50;;;;;;5013765;28;20948;-69
2023/08/24 02:07:01;;;;;;;146.23;140.63;;;15.20;94.20;;;;;;5014444;28;20508;-69
2023/08/24 02:09:28;;;;;;;143.50;137.83;;;15.20;95.50;;;;;;5014093;28;20488;-69
2023/08/24 02:11:55;;;;;;;152.93;146.73;;;15.10;95.40;;;;;;5014117;28;20545;-69
2023/08/24 02:14:22;;;;;;;160.90;154.63;;;15.10;95.30;;;;;;5014052;28;20457;-68
2023/08/24 02:16:49;;;;;;;151.90;145.60;;;15.10;94.90;;;;;;5014186;28;20540;-68
2023/08/24 02:19:17;;;;;;;160.40;153.90;;;15.00;95.40;;;;;;5013965;28;20477;-69
2023/08/24 02:21:44;;;;;;;166.23;159.57;;;15.10;96.40;;;;;;5013762;28;20481;-68
2023/08/24 02:24:11;;;;;;;188.20;180.37;;;15.10;96.40;;;;;;5013838;28;20489;-68
2023/08/24 02:26:38;;;;;;;154.50;148.13;;;15.10;97.00;;;;;;5014000;28;20453;-69
2023/08/24 02:29:05;;;;;;;133.17;127.83;;;15.10;96.40;;;;;;5013560;28;20532;-68
2023/08/24 02:31:33;;;;;;;157.43;151.30;;;15.20;95.30;;;;;;5013751;28;20457;-71
2023/08/24 02:34:00;;;;;;;176.70;168.80;;;15.30;96.50;;;;;;5013274;28;20511;-69
2023/08/24 02:36:28;;;;;;;179.30;171.70;;;15.30;98.40;;;;;;5013724;28;20537;-69
2023/08/24 02:38:55;;;;;;;189.87;182.00;;;15.40;98.50;;;;;;5013613;28;20515;-69
2023/08/24 02:41:23;;;;;;;191.60;183.60;;;15.40;99.80;;;;;;5013852;28;20476;-69
2023/08/24 02:43:49;;;;;;;191.83;183.87;;;15.40;98.20;;;;;;5013505;28;20857;-69
2023/08/24 02:46:18;;;;;;;218.07;209.47;;;15.50;98.10;;;;;;5013673;28;20502;-69
2023/08/24 02:48:45;;;;;;;221.10;212.23;;;15.50;97.40;;;;;;5013269;28;20460;-69
2023/08/24 02:51:12;;;;;;;219.13;210.23;;;15.50;97.70;;;;;;5013311;28;20948;-68
2023/08/24 02:53:40;;;;;;;262.13;250.83;;;15.50;99.10;;;;;;5013700;28;20450;-69
2023/08/24 02:56:07;;;;;;;218.17;209.63;;;15.60;99.90;;;;;;5013800;28;20895;-68
2023/08/24 02:58:34;;;;;;;194.23;186.23;;;15.60;97.90;;;;;;5013447;28;20533;-69
2023/08/24 03:01:06;;;;;;;178.93;171.70;;;15.70;97.10;;;;;;5012137;28;20537;-69
2023/08/24 03:03:33;;;;;;;214.97;205.70;;;15.80;96.70;;;;;;5012851;28;20453;-68
2023/08/24 03:06:02;;;;;;;208.37;199.23;;;15.90;98.40;;;;;;5013093;28;20453;-69
2023/08/24 03:08:30;;;;;;;183.67;175.90;;;16.00;97.50;;;;;;5012978;28;20833;-68
2023/08/24 03:10:58;;;;;;;160.40;154.20;;;16.10;96.90;;;;;;5012811;28;20790;-68
2023/08/24 03:13:26;;;;;;;153.80;147.70;;;16.10;97.10;;;;;;5012788;28;20520;-69
2023/08/24 03:15:53;;;;;;;144.47;138.97;;;16.20;95.60;;;;;;5012736;28;20456;-69
2023/08/24 03:18:21;;;;;;;120.67;116.23;;;16.30;95.30;;;;;;5012875;28;20473;-68
2023/08/24 03:20:49;;;;;;;89.83;86.33;;;16.30;93.60;;;;;;5012675;28;20495;-68
2023/08/24 03:23:17;;;;;;;103.57;99.17;;;16.40;93.60;;;;;;5006283;28;20464;-68
2023/08/24 03:25:44;;;;;;;94.70;91.10;;;16.40;93.60;;;;;;5012691;28;20544;-68
2023/08/24 03:28:13;;;;;;;101.07;96.97;;;16.50;93.70;;;;;;5012631;28;20866;-69
2023/08/24 03:30:46;;;;;;;86.27;82.30;;;16.50;93.70;;;;;;5012320;28;20449;-69
2023/08/24 03:33:12;;;;;;;115.40;110.67;;;16.60;93.70;;;;;;5012628;28;20473;-69
2023/08/24 03:35:40;;;;;;;124.13;119.13;;;16.60;93.80;;;;;;5012540;28;20799;-68
2023/08/24 03:38:07;;;;;;;125.60;120.90;;;16.60;94.50;;;;;;5012525;28;20504;-68
2023/08/24 03:40:34;;;;;;;113.30;108.60;;;16.60;96.60;;;;;;5012543;28;20454;-68
2023/08/24 03:43:02;;;;;;;148.20;142.37;;;16.60;95.50;;;;;;5012049;28;20557;-68
2023/08/24 03:45:31;;;;;;;154.63;148.63;;;16.60;97.00;;;;;;5012158;28;20507;-68
2023/08/24 03:47:58;;;;;;;119.97;115.20;;;16.60;97.10;;;;;;5012665;28;20446;-69
2023/08/24 03:50:25;;;;;;;111.87;107.57;;;16.60;95.50;;;;;;5012486;28;20821;-69
2023/08/24 03:52:54;;;;;;;117.90;113.40;;;16.60;96.40;;;;;;5011726;28;20449;-69
2023/08/24 03:55:21;;;;;;;230.30;221.20;;;16.60;95.50;;;;;;5012054;28;20454;-71
2023/08/24 03:57:48;;;;;;;278.50;265.70;;;16.60;99.90;;;;;;5012066;28;20536;-70
2023/08/24 04:00:16;;;;;;;289.77;277.10;;;16.60;99.90;;;;;;5012107;28;20485;-68
2023/08/24 04:02:45;;;;;;;318.13;302.33;;;16.60;99.90;;;;;;5012213;28;20948;-68
2023/08/24 04:05:12;;;;;;;305.47;290.33;;;16.60;99.90;;;;;;5011377;28;20454;-68
2023/08/24 04:07:41;;;;;;;271.33;258.43;;;16.60;99.90;;;;;;5017413;28;20785;-69
2023/08/24 04:10:09;;;;;;;263.13;250.83;;;16.60;99.90;;;;;;5011633;28;20462;-68
2023/08/24 04:12:36;;;;;;;266.87;254.83;;;16.60;99.90;;;;;;5011028;28;21000;-68
2023/08/24 04:15:04;;;;;;;268.57;255.77;;;16.60;99.90;;;;;;5011795;28;20449;-68
2023/08/24 04:17:31;;;;;;;261.33;249.40;;;16.60;99.90;;;;;;5008204;28;20936;-68
2023/08/24 04:19:59;;;;;;;295.30;281.30;;;16.60;99.90;;;;;;5000905;28;20464;-68
2023/08/24 04:22:26;;;;;;;341.57;324.87;;;16.60;99.90;;;;;;5011724;28;20508;-67
2023/08/24 04:24:53;;;;;;;480.90;456.30;;;16.60;99.90;;;;;;5011121;28;20532;-66
2023/08/24 04:27:21;;;;;;;746.17;706.50;;;16.60;99.90;;;;;;5011573;28;20512;-65
2023/08/24 04:29:48;;;;;;;925.23;873.23;;;16.60;99.90;;;;;;5012068;28;20445;-66
2023/08/24 04:32:15;;;;;;;932.73;874.47;;;16.60;99.90;;;;;;5006188;28;20486;-66
2023/08/24 04:34:42;;;;;;;937.80;869.10;;;16.50;99.90;;;;;;5008103;28;20461;-67
2023/08/24 04:37:11;;;;;;;1069.47;989.37;;;16.50;99.90;;;;;;4998808;28;20445;-69
2023/08/24 04:39:38;;;;;;;1211.67;999.90;;;16.60;99.90;;;;;;5011497;28;20964;-69
2023/08/24 04:42:05;;;;;;;1261.53;999.90;;;16.60;99.90;;;;;;5011819;28;20965;-69
2023/08/24 04:44:33;;;;;;;1280.97;999.90;;;16.60;99.90;;;;;;5011161;28;20477;-69
2023/08/24 04:47:00;;;;;;;1287.40;999.90;;;16.60;99.90;;;;;;5011661;28;20466;-69
2023/08/24 04:49:28;;;;;;;1297.20;999.90;;;16.70;99.90;;;;;;5011255;28;20473;-69
2023/08/24 04:51:55;;;;;;;1290.07;999.90;;;16.80;99.90;;;;;;5011129;28;20482;-69
2023/08/24 04:54:23;;;;;;;1285.57;999.90;;;16.80;99.90;;;;;;5011398;28;20952;-68
2023/08/24 04:56:50;;;;;;;1279.03;999.90;;;16.80;99.90;;;;;;5007348;28;20543;-68
2023/08/24 04:59:17;;;;;;;1273.47;999.90;;;16.80;99.90;;;;;;5001110;28;20477;-69
2023/08/24 05:01:44;;;;;;;1255.03;999.90;;;16.80;99.90;;;;;;5011693;28;20873;-68
2023/08/24 05:04:11;;;;;;;1268.77;999.90;;;16.80;99.90;;;;;;4995912;28;20474;-68
2023/08/24 05:06:38;;;;;;;1247.27;999.90;;;16.90;99.90;;;;;;4992154;28;20848;-68
2023/08/24 05:09:05;;;;;;;1250.57;999.90;;;16.90;99.90;;;;;;5000098;28;20530;-68
2023/08/24 05:11:33;;;;;;;1258.20;999.90;;;16.90;99.90;;;;;;5012026;28;20485;-68
2023/08/24 05:14:00;;;;;;;1261.37;999.90;;;16.90;99.90;;;;;;5011469;28;21003;-69
2023/08/24 05:16:27;;;;;;;1259.07;999.90;;;17.00;99.90;;;;;;5009028;28;20453;-68
2023/08/24 05:18:55;;;;;;;1264.57;999.90;;;17.00;99.90;;;;;;5011213;28;20508;-68
2023/08/24 05:21:21;;;;;;;1282.07;999.90;;;17.10;99.90;;;;;;5011416;28;20482;-69
2023/08/24 05:23:48;;;;;;;1285.07;999.90;;;17.10;99.90;;;;;;5010636;28;20481;-68
2023/08/24 05:26:22;;;;;;;1286.60;999.90;;;17.10;99.90;;;;;;5011399;28;20512;-68
2023/08/24 05:28:50;;;;;;;1299.77;999.90;;;17.20;99.90;;;;;;5011243;28;20456;-68
2023/08/24 05:31:17;;;;;;;1305.00;999.90;;;17.30;99.90;;;;;;5011043;28;20516;-68
2023/08/24 05:33:44;;;;;;;1306.17;999.90;;;17.30;99.90;;;;;;5010635;28;20550;-69
2023/08/24 05:36:11;;;;;;;1310.17;999.90;;;17.30;99.90;;;;;;5011394;28;20541;-68
2023/08/24 05:38:38;;;;;;;1303.07;999.90;;;17.40;99.90;;;;;;5011210;28;20517;-68
2023/08/24 05:41:05;;;;;;;1308.07;999.90;;;17.40;99.90;;;;;;5010719;28;20532;-68
2023/08/24 05:43:32;;;;;;;1314.90;999.90;;;17.50;99.90;;;;;;5010572;28;20508;-69
2023/08/24 05:46:02;;;;;;;1305.90;999.90;;;17.50;99.90;;;;;;5011108;28;20454;-69
2023/08/24 05:48:30;;;;;;;1285.00;999.90;;;17.60;99.90;;;;;;5009434;28;20815;-68
2023/08/24 05:50:57;;;;;;;1282.23;999.90;;;17.70;99.90;;;;;;5009407;28;20488;-69
2023/08/24 05:53:23;;;;;;;1282.30;999.90;;;17.70;99.90;;;;;;5001360;23;21107;-69
2023/08/24 05:55:50;;;;;;;1269.20;999.90;;;17.80;99.90;;;;;;4989957;28;20458;-71
2023/08/24 05:58:17;;;;;;;1256.07;999.90;;;17.90;99.90;;;;;;4991641;28;20447;-71
2023/08/24 06:00:44;;;;;;;1257.60;999.90;;;18.00;99.90;;;;;;4992747;28;20946;-70
2023/08/24 06:03:12;;;;;;;1237.57;999.90;;;18.00;99.90;;;;;;4993109;28;20461;-70
2023/08/24 06:05:39;;;;;;;1222.20;999.90;;;18.10;99.90;;;;;;4992567;28;20501;-70
2023/08/24 06:08:06;;;;;;;1182.63;999.90;;;18.10;99.90;;;;;;4992707;28;20450;-70
2023/08/24 06:10:33;;;;;;;1174.50;999.90;;;18.10;99.90;;;;;;4992297;28;20450;-70
2023/08/24 06:13:02;;;;;;;1165.20;999.90;;;18.20;99.90;;;;;;4996795;28;21029;-70
2023/08/24 06:15:29;;;;;;;1135.03;999.90;;;18.20;99.90;;;;;;4992574;28;20450;-70
2023/08/24 06:17:56;;;;;;;1129.13;999.90;;;18.20;99.90;;;;;;4992416;28;20938;-70
2023/08/24 06:20:24;;;;;;;1083.87;999.07;;;18.10;99.90;;;;;;4992689;28;20488;-70
2023/08/24 06:22:51;;;;;;;1072.53;986.90;;;18.20;99.90;;;;;;4992684;28;20458;-71
2023/08/24 06:25:18;;;;;;;1060.10;974.50;;;18.20;99.90;;;;;;4992503;28;20453;-70
2023/08/24 06:27:44;;;;;;;1042.93;959.27;;;18.30;99.90;;;;;;4992747;28;20454;-70
2023/08/24 06:30:12;;;;;;;1034.87;952.27;;;18.40;99.90;;;;;;4992855;28;20828;-71
2023/08/24 06:32:39;;;;;;;1009.23;930.33;;;18.50;99.90;;;;;;4992738;28;20477;-70
2023/08/24 06:35:07;;;;;;;994.93;918.03;;;18.60;99.90;;;;;;4993149;28;20450;-70
2023/08/24 06:37:35;;;;;;;955.10;882.90;;;18.70;99.90;;;;;;4996289;28;20809;-70
2023/08/24 06:40:02;;;;;;;963.77;890.80;;;18.80;99.90;;;;;;4996220;28;20504;-72
2023/08/24 06:42:29;;;;;;;926.00;857.57;;;18.90;99.90;;;;;;4996020;28;20496;-72
2023/08/24 06:44:56;;;;;;;919.47;851.17;;;19.00;99.90;;;;;;4995893;28;20462;-70
2023/08/24 06:47:23;;;;;;;910.67;844.50;;;19.10;99.90;;;;;;4995101;28;20455;-71
2023/08/24 06:49:51;;;;;;;898.50;836.90;;;19.30;99.90;;;;;;4995772;28;20457;-71
2023/08/24 06:52:18;;;;;;;891.23;832.23;;;19.40;99.90;;;;;;4995767;28;20437;-71
2023/08/24 06:54:48;;;;;;;878.53;823.73;;;19.40;99.90;;;;;;4995776;28;20746;-72
2023/08/24 06:57:15;;;;;;;879.33;824.23;;;19.40;99.90;;;;;;4994295;28;20492;-71
2023/08/24 06:59:42;;;;;;;885.27;828.20;;;19.40;99.90;;;;;;4995466;28;20500;-70
2023/08/24 07:02:09;;;;;;;873.80;820.77;;;19.50;99.90;;;;;;4995365;28;20450;-71
2023/08/24 07:04:36;;;;;;;870.53;817.93;;;19.50;99.90;;;;;;4995025;28;20545;-71
2023/08/24 07:07:03;;;;;;;866.13;814.93;;;19.60;99.90;;;;;;4995122;28;20462;-71
2023/08/24 07:09:30;;;;;;;863.00;814.20;;;19.70;99.90;;;;;;4994969;28;20450;-70
2023/08/24 07:11:59;;;;;;;871.10;820.30;;;19.80;99.90;;;;;;4994824;28;20447;-70
2023/08/24 07:14:26;;;;;;;878.93;829.33;;;19.80;99.90;;;;;;4995039;28;20451;-70
2023/08/24 07:16:52;;;;;;;870.33;822.73;;;19.90;99.90;;;;;;4994853;28;20533;-69
2023/08/24 07:19:20;;;;;;;861.17;815.27;;;20.00;99.90;;;;;;4994334;28;20485;-69
2023/08/24 07:21:47;;;;;;;870.87;823.20;;;20.10;99.90;;;;;;4994225;28;20454;-69
2023/08/24 07:24:14;;;;;;;887.43;837.20;;;20.20;99.90;;;;;;4994367;28;20541;-69
2023/08/24 07:26:42;;;;;;;833.38;791.53;;;20.40;99.90;;;;;;4993778;28;20924;-70
2023/08/24 07:29:10;;;;;;;821.73;782.57;;;20.40;99.90;;;;;;4994069;28;20647;-69
2023/08/24 07:31:37;;;;;;;763.40;728.67;;;20.60;99.90;;;;;;4993303;28;20454;-69
2023/08/24 07:34:04;;;;;;;666.43;639.67;;;20.70;99.90;;;;;;4993987;28;20458;-70
2023/08/24 07:36:31;;;;;;;585.53;563.23;;;20.90;99.90;;;;;;4994649;28;20457;-69
2023/08/24 07:38:58;;;;;;;314.50;304.07;;;21.10;99.90;;;;;;4995171;28;20457;-69
2023/08/24 07:41:25;;;;;;;247.00;238.70;;;21.20;99.90;;;;;;4994883;28;20965;-71
2023/08/24 07:43:52;;;;;;;312.87;302.30;;;21.40;99.90;;;;;;4994803;28;20450;-69
2023/08/24 07:46:20;;;;;;;133.83;128.70;;;21.50;99.90;;;;;;4994663;28;20824;-70
2023/08/24 07:48:47;;;;;;;137.57;132.57;;;21.70;99.90;;;;;;4994339;28;20451;-70
2023/08/24 07:51:14;;;;;;;18.63;17.13;;;21.90;99.90;;;;;;4994737;28;20453;-70
2023/08/24 07:53:40;;;;;;;11.33;9.90;;;22.10;99.90;;;;;;4994403;28;20458;-72
2023/08/24 07:56:07;;;;;;;10.10;8.50;;;22.20;99.90;;;;;;4994839;28;20542;-68
2023/08/24 07:58:34;;;;;;;11.83;6.40;;;22.50;99.50;;;;;;4994647;28;20450;-70
2023/08/24 08:01:01;;;;;;;9.63;6.53;;;22.80;96.30;;;;;;4994253;28;20489;-68
2023/08/24 08:03:31;;;;;;;10.77;6.37;;;23.20;96.40;;;;;;4994532;28;20929;-68
2023/08/24 08:05:58;;;;;;;8.80;5.50;;;23.70;93.40;;;;;;4994519;28;20451;-70
2023/08/24 08:08:25;;;;;;;9.00;7.00;;;23.90;91.40;;;;;;4994614;28;20450;-69
2023/08/24 08:11:00;;;;;;;10.27;5.73;;;24.10;89.90;;;;;;4994564;28;20820;-70
2023/08/24 08:13:27;;;;;;;10.47;5.07;;;24.30;90.00;;;;;;4994070;28;20477;-70
2023/08/24 08:15:54;;;;;;;8.27;4.90;;;24.50;82.30;;;;;;4994251;28;20490;-69
2023/08/24 08:18:21;;;;;;;7.87;4.23;;;24.90;86.80;;;;;;4994451;28;20459;-69
2023/08/24 08:20:53;;;;;;;20.33;6.73;;;25.10;82.00;;;;;;4993699;28;20467;-70
2023/08/24 08:23:19;;;;;;;10.20;5.63;;;25.30;64.50;;;;;;4992890;28;20461;-69
2023/08/24 08:25:46;;;;;;;14.17;5.10;;;25.90;61.00;;;;;;4994006;28;20457;-67
2023/08/24 08:28:13;;;;;;;11.63;5.20;;;26.00;58.60;;;;;;4993718;28;20460;-71
2023/08/24 08:30:40;;;;;;;8.67;5.03;;;26.00;57.90;;;;;;4994353;28;20450;-70
2023/08/24 08:33:07;;;;;;;9.20;5.90;;;26.30;58.00;;;;;;4993889;28;20954;-69
2023/08/24 08:35:33;;;;;;;12.33;5.40;;;26.50;56.20;;;;;;4993341;28;20493;-69
2023/08/24 08:38:02;;;;;;;9.90;5.63;;;26.80;50.50;;;;;;4993600;28;20452;-71
2023/08/24 08:40:31;;;;;;;10.17;5.00;;;27.00;50.40;;;;;;4993521;28;20569;-69
2023/08/24 08:42:58;;;;;;;9.20;5.20;;;27.10;46.20;;;;;;4993674;28;20967;-69
2023/08/24 08:45:26;;;;;;;8.27;4.70;;;27.30;41.60;;;;;;4993822;28;20477;-71
2023/08/24 08:47:56;;;;;;;10.57;5.30;;;27.60;41.80;;;;;;4993904;28;20582;-69
2023/08/24 08:50:23;;;;;;;11.37;5.40;;;27.70;41.90;;;;;;4993446;28;20452;-69
2023/08/24 08:52:51;;;;;;;8.67;4.80;;;27.80;41.90;;;;;;4993482;28;20466;-71
2023/08/24 08:55:19;;;;;;;14.40;5.90;;;28.00;41.60;;;;;;4993811;28;20486;-73
2023/08/24 08:57:49;;;;;;;8.50;4.60;;;28.00;32.80;;;;;;4993712;28;20455;-71
2023/08/24 09:00:17;;;;;;;9.67;4.70;;;28.20;33.00;;;;;;4992853;28;20595;-74
2023/08/24 09:02:46;;;;;;;9.80;4.50;;;28.40;33.10;;;;;;4993605;28;20457;-71
2023/08/24 09:05:13;;;;;;;8.53;4.37;;;28.60;33.20;;;;;;4993430;28;20494;-72
2023/08/24 09:07:41;;;;;;;10.40;5.67;;;29.10;33.60;;;;;;4993347;28;20935;-70
2023/08/24 09:10:08;;;;;;;9.20;4.60;;;28.90;25.50;;;;;;4993401;28;20452;-71
2023/08/24 09:12:37;;;;;;;9.95;5.18;;;29.30;33.30;;;;;;4992448;28;20526;-71
2023/08/24 09:15:06;;;;;;;15.33;4.80;;;29.40;25.70;;;;;;4992136;28;20202;-71
2023/08/24 09:17:32;;;;;;;10.30;5.00;;;29.50;26.40;;;;;;4992530;28;20461;-71
2023/08/24 09:20:00;;;;;;;11.40;4.80;;;29.40;25.70;;;;;;4991221;28;20491;-71
2023/08/24 09:22:27;;;;;;;12.20;4.10;;;29.50;24.10;;;;;;4991008;28;20467;-72
2023/08/24 09:24:55;;;;;;;11.50;4.30;;;29.40;18.30;;;;;;4992695;28;20450;-71
2023/08/24 09:27:22;;;;;;;10.60;4.20;;;29.30;20.40;;;;;;4992753;28;20509;-71
2023/08/24 09:29:51;;;;;;;8.53;4.33;;;29.40;19.10;;;;;;4993072;28;20460;-71
2023/08/24 09:32:23;;;;;;;7.83;3.77;;;29.30;20.10;;;;;;4993109;28;20479;-70
2023/08/24 09:34:50;;;;;;;7.90;3.83;;;29.40;18.20;;;;;;4993004;28;21007;-72
2023/08/24 09:37:17;;;;;;;9.80;4.00;;;29.70;18.40;;;;;;4993167;28;20464;-72
2023/08/24 09:39:45;;;;;;;8.20;3.30;;;29.70;18.40;;;;;;4992581;28;20472;-72
2023/08/24 09:42:13;;;;;;;13.43;5.17;;;29.50;18.20;;;;;;4992403;28;20458;-71
2023/08/24 09:44:44;;;;;;;11.63;3.67;;;29.90;18.40;;;;;;4992297;28;20540;-71
2023/08/24 09:47:13;;;;;;;22.40;4.10;;;29.70;10.80;;;;;;4992640;28;20454;-70
2023/08/24 09:49:42;;;;;;;10.90;4.00;;;29.70;13.70;;;;;;4992420;28;20983;-72
2023/08/24 09:52:10;;;;;;;7.70;3.60;;;29.80;11.50;;;;;;4992320;28;20450;-71
2023/08/24 09:54:39;;;;;;;6.20;3.20;;;30.00;11.90;;;;;;4992711;28;20458;-70
2023/08/24 09:57:07;;;;;;;10.60;4.00;;;29.90;10.80;;;;;;4992109;28;20454;-70
2023/08/24 09:59:36;;;;;;;12.07;3.30;;;29.90;10.80;;;;;;4991773;28;20469;-71
2023/08/24 10:02:03;;;;;;;8.43;3.60;;;30.20;12.30;;;;;;4992494;28;20461;-71
2023/08/24 10:04:35;;;;;;;8.13;3.90;;;30.10;10.90;;;;;;4991591;28;20547;-73
2023/08/24 10:07:09;;;;;;;8.60;3.13;;;30.30;11.00;;;;;;4993198;28;20199;-70
2023/08/24 10:09:42;;;;;;;7.50;4.13;;;30.30;10.80;;;;;;4993113;28;20450;-71
2023/08/24 10:12:10;;;;;;;7.17;3.30;;;30.30;5.60;;;;;;4995495;28;20464;-71
2023/08/24 10:14:45;;;;;;;8.10;4.00;;;29.90;6.90;;;;;;4995995;28;20470;-71
2023/08/24 10:17:13;;;;;;;10.30;3.50;;;30.00;7.00;;;;;;4996405;28;20462;-71
2023/08/24 10:19:42;;;;;;;7.20;3.53;;;30.10;3.10;;;;;;4996606;28;20453;-72
2023/08/24 10:22:09;;;;;;;10.23;4.13;;;30.30;6.60;;;;;;4996546;28;20454;-72
2023/08/24 10:24:37;;;;;;;9.50;6.30;;;30.20;7.10;;;;;;4996246;28;20978;-71
2023/08/24 10:27:05;;;;;;;12.83;4.47;;;30.30;3.20;;;;;;4995980;28;20450;-71
2023/08/24 10:29:32;;;;;;;10.43;4.23;;;30.40;3.20;;;;;;4996636;28;20457;-71
2023/08/24 10:31:59;;;;;;;9.87;3.80;;;30.50;3.30;;;;;;4996257;28;20542;-72
2023/08/24 10:34:26;;;;;;;13.17;4.37;;;30.50;4.00;;;;;;4995976;28;20454;-71
2023/08/24 10:36:54;;;;;;;10.67;3.93;;;30.60;3.30;;;;;;4996263;28;20987;-71
2023/08/24 10:39:28;;;;;;;11.00;4.17;;;30.70;3.40;;;;;;4995827;28;20454;-71
2023/08/24 10:41:56;;;;;;;8.10;3.53;;;30.80;3.40;;;;;;4996247;28;20922;-72
2023/08/24 10:44:25;;;;;;;9.47;3.70;;;31.10;3.60;;;;;;4995970;28;20457;-71
2023/08/24 10:47:08;;;;;;;6.70;3.20;;;31.10;3.60;;;;;;4996403;28;20545;-71
2023/08/24 10:49:35;;;;;;;9.00;3.77;;;31.40;3.80;;;;;;4995717;28;20458;-72
2023/08/24 10:52:21;;;;;;;12.63;3.80;;;31.40;1.00;;;;;;4996008;28;20473;-71
2023/08/24 10:54:50;;;;;;;8.57;3.30;;;31.60;1.00;;;;;;4996146;28;20929;-71
2023/08/24 10:57:22;;;;;;;7.50;3.13;;;32.00;1.00;;;;;;4995995;28;20454;-71
2023/08/24 11:00:05;;;;;;;8.50;3.53;;;32.10;1.00;;;;;;4995774;28;20454;-71
2023/08/24 11:02:41;;;;;;;8.27;3.37;;;32.20;1.00;;;;;;4995777;28;20747;-72
2023/08/24 11:05:16;;;;;;;10.30;3.30;;;32.00;1.00;;;;;;4995495;28;20481;-72
2023/08/24 11:07:51;;;;;;;7.70;2.93;;;31.90;1.00;;;;;;4995745;28;20812;-72
2023/08/24 11:10:18;;;;;;;9.03;4.03;;;31.60;1.00;;;;;;4995914;28;20449;-72
2023/08/24 11:13:22;;;;;;;8.13;3.40;;;31.10;1.00;;;;;;4995549;28;20457;-71
2023/08/24 11:15:54;;;;;;;8.53;3.63;;;30.50;1.00;;;;;;4955092;29;20543;-72
2023/08/24 11:18:23;;;;;;;8.33;3.80;;;30.10;1.00;;;;;;4955497;29;20466;-77
2023/08/24 11:20:51;;;;;;;8.13;3.40;;;29.90;2.90;;;;;;4977374;28;20569;-75
2023/08/24 11:23:20;;;;;;;10.30;3.33;;;29.60;2.80;;;;;;4993355;28;20465;-75
2023/08/24 11:25:48;;;;;;;12.43;3.80;;;29.50;2.70;;;;;;4997122;28;20492;-76
2023/08/24 11:28:18;;;;;;;8.90;3.70;;;29.20;2.60;;;;;;4992314;28;20936;-74
2023/08/24 11:30:46;;;;;;;14.37;3.97;;;28.90;2.40;;;;;;4985183;28;20459;-73
2023/08/24 11:33:13;;;;;;;7.20;3.77;;;28.70;10.10;;;;;;4995194;28;20456;-71
2023/08/24 11:35:43;;;;;;;9.83;3.87;;;28.60;10.10;;;;;;4995012;28;20455;-74
2023/08/24 11:38:10;;;;;;;10.10;4.13;;;28.50;10.00;;;;;;4995305;28;20452;-75
2023/08/24 11:40:39;;;;;;;12.00;3.80;;;28.50;10.00;;;;;;4995238;28;20488;-74
2023/08/24 11:43:06;;;;;;;16.47;3.40;;;28.70;10.10;;;;;;4995069;28;20457;-72
2023/08/24 11:45:34;;;;;;;9.60;3.30;;;28.80;10.20;;;;;;4993729;28;20940;-71
2023/08/24 11:48:04;;;;;;;11.13;3.23;;;28.90;10.30;;;;;;4994493;28;20506;-73
2023/08/24 11:50:31;;;;;;;12.20;3.50;;;29.00;8.70;;;;;;4994748;28;20811;-72
2023/08/24 11:52:59;;;;;;;16.23;4.30;;;29.10;7.90;;;;;;4993816;28;20479;-72
2023/08/24 11:55:26;;;;;;;9.57;4.30;;;29.10;10.40;;;;;;4994427;28;20561;-70
2023/08/24 11:57:55;;;;;;;7.20;3.70;;;29.10;10.90;;;;;;4994029;28;20964;-70
2023/08/24 12:00:23;;;;;;;7.00;3.50;;;29.00;10.40;;;;;;4993741;28;20885;-70
2023/08/24 12:02:51;;;;;;;9.10;3.80;;;28.90;13.10;;;;;;4993764;28;20461;-70
2023/08/24 12:05:22;;;;;;;8.60;3.70;;;28.60;10.10;;;;;;4994145;28;20457;-68
2023/08/24 12:07:49;;;;;;;9.23;3.07;;;28.30;17.60;;;;;;4994354;28;20550;-69
2023/08/24 12:10:16;;;;;;;8.87;3.17;;;27.60;24.70;;;;;;4994087;28;20447;-68
2023/08/24 12:12:43;;;;;;;15.10;4.43;;;26.50;27.90;;;;;;4993698;28;20494;-67
2023/08/24 12:15:19;;;;;;;11.87;3.20;;;25.20;46.30;;;;;;4993437;28;20545;-67
2023/08/24 12:17:47;;;;;;;10.60;3.43;;;24.20;57.20;;;;;;4993919;28;20975;-67
2023/08/24 12:20:22;;;;;;;8.27;3.53;;;23.40;69.00;;;;;;4993835;28;20582;-66
2023/08/24 12:22:56;;;;;;;10.40;4.63;;;23.30;77.30;;;;;;4993264;28;20457;-66
2023/08/24 12:25:24;;;;;;;14.07;4.20;;;22.90;96.30;;;;;;4993653;28;20906;-66
2023/08/24 12:27:52;;;;;;;9.23;5.10;;;22.70;99.90;;;;;;4993748;28;20810;-66